LRSV - SUCEAVA/STEFAN CEL MARE - SUCEAVA

Compiled: 17:32:15 on 20/10/2018

Latest METAR/SPECI Reports

METAR LRSV 201730Z 34012KT 5000 BR NSC 11/09 Q1021=

Previous reports

METAR LRSV 201700Z 33013KT 5000 BR NSC 11/09 Q1021=
METAR LRSV 201630Z 33012KT 5000 BR NSC 11/09 Q1021=
METAR LRSV 201600Z 33011KT 4000 BR NSC 11/09 Q1021=
METAR LRSV 201530Z 33010KT 4000 BR NSC 12/09 Q1021=

Latest TAF report

TAF LRSV 201700Z 2018/2103 34013KT 5000 BR NSC BECMG 2021/2023 VRB04KT 3000 BR BKN010 TEMPO 2023/2103 1500 BR BKN005=

Valid WARNINGS

No valid warnings for LRSV